Burlington, KY

3:16 PM EST on March 06, 2015 (GMT -0500)
APRSWXNET Burlington KY US | Change Station
CLOSE
Current Station
Personal Weather Station
Location: Belleview, KY
Elevation: 863 ft
Nearby Weather Stations
Active Advisory: Flood Warning Active Notice: Record Report, Public Information Statement

Elev 863 ft 39.04 °N, 84.72 °W | Updated 27 minutes ago

Clear
Clear
27 °F
Feels Like 21 °F
N
5
Wind Variable Wind from SW
Gusts 14.0 mph

Today
High -- | Low -- °F
--% Chance of Precip.
Yesterday
High -- | Low -- °F
Precip. -- in
7:04 AM 6:36 PM
Full, 99% visible
Pressure 30.44 in
Visibility 10.0 miles
Clouds Clear
Windchill 21 °F
Dew Point 15 °F
Humidity 60%
Rainfall in
Snow Depth Not available.
UV 5 out of 12
Pollen 2.10 out of 12
Air Quality Not available.
Flu Activity Not available.
METAR KCVG 061952Z 18011KT 10SM CLR M04/M12 A3044

More Conditions Fewer Conditions

Pressure 30.44 in
Visibility 10.0 miles
Clouds Clear
Windchill 21 °F
Dew Point 15 °F
Humidity 60%
Rainfall in
Snow Depth Not available.
UV 5 out of 12
Pollen 2.10 out of 12
Air Quality Not available.
Flu Activity Not available.
METAR KCVG 061952Z 18011KT 10SM CLR M04/M12 A3044

More Conditions Fewer Conditions

10-Day Weather Forecast

Almanac

Astronomy

Mar. 06, 2015 Rise Set
Actual Time
Civil Twilight
Nautical Twilight
Astronomical Twilight
Moon
Length of Visible Light
Length of Day
Tomorrow will be .
, % of the Moon is Illuminated

Today's Extremes

State Highs State Lows

Community

WunderPhotos

Upload Photos

1,803,386 photos uploaded!

WunderBlogs® & News

Nearby

Air Quality

  Air Quality AQ Index Pollutant
Not available.

Snow Depth

Station Depth Elevation

Earthquake Activity

City Distance Mag. Time & Date
Minimum magnitude displayed is 2.5.

Coastal Water Temperatures

Place Temperature

Nearby Weather Stations

Flood Warning
Statement as of 10:51 AM EST on March 06, 2015

The National Weather Service in Wilmington has issued a

* Flood Warning for
the Ohio River at Cincinnati
* from Saturday morning to Monday afternoon.
* At 10 am the stage was 48.8 feet.
* Minor flooding is forecast.
* Flood stage is 52 feet.
* The river will rise above flood stage by late Saturday morning and
continue to rise to near 53.7 feet by early Sunday afternoon. The
river will fall below flood stage by late Monday morning.
* At stages near 54.0 feet, backwater flooding spreads up the lower
Little Miami river as far upstream as Newtown, with flooding worsening
in California and in Anderson township. Low-lying areas near New
Richmond in Clermont County also flood. Flooding also worsens in the
east end. Flooding near Petersburg, Kentucky along Belleview Road
near the woolper creek bridge occurs, as well as near old State Route
56 and Water Street near Aurora, Indiana.



Lat... Lon 3890 8418 3885 8429 3903 8449 3903 8494
      3916 8490 3914 8437